Time;durP1;ratioP1;P1;durP2;ratioP2;P2;SDS_P1;SDS_P2;PMS_P1;PMS_P2;Temp;Humidity;BMP_temperature;BMP_pressure;BME280_temperature;BME280_humidity;BME280_pressure;Samples;Min_cycle;Max_cycle;Signal;HPM_P1;HPM_P2
2023/06/04 00:00:17;;;;;;;1.60;1.60;;;22.20;62.60;;;;;;5089465;27;43590;-71
2023/06/04 00:02:45;;;;;;;1.97;1.93;;;22.20;62.30;;;;;;5089199;27;43530;-70
2023/06/04 00:05:13;;;;;;;1.67;1.67;;;22.30;62.40;;;;;;5088864;27;43504;-71
2023/06/04 00:07:41;;;;;;;1.70;1.70;;;22.20;62.20;;;;;;5087444;28;43441;-70
2023/06/04 00:10:10;;;;;;;1.83;1.83;;;22.20;62.50;;;;;;5088893;27;43969;-70
2023/06/04 00:12:37;;;;;;;1.80;1.80;;;22.20;62.40;;;;;;5089014;28;44215;-70
2023/06/04 00:15:07;;;;;;;1.80;1.80;;;22.20;62.40;;;;;;5085540;28;43340;-70
2023/06/04 00:17:36;;;;;;;1.50;1.50;;;22.20;62.30;;;;;;5088808;28;43460;-70
2023/06/04 00:20:05;;;;;;;1.60;1.60;;;22.20;62.30;;;;;;5087378;28;45821;-70
2023/06/04 00:22:33;;;;;;;1.50;1.50;;;22.10;62.60;;;;;;5085846;28;44735;-71
2023/06/04 00:25:01;;;;;;;1.60;1.60;;;22.20;62.70;;;;;;5087812;28;44022;-72
2023/06/04 00:27:29;;;;;;;1.50;1.50;;;22.10;62.60;;;;;;5092510;27;43422;-70
2023/06/04 00:29:57;;;;;;;1.60;1.60;;;22.10;62.30;;;;;;5084543;28;45140;-70
2023/06/04 00:32:26;;;;;;;1.50;1.50;;;22.10;62.40;;;;;;5088728;28;43437;-70
2023/06/04 00:34:57;;;;;;;1.60;1.60;;;22.00;62.70;;;;;;5087640;27;43383;-70
2023/06/04 00:37:26;;;;;;;1.50;1.50;;;22.10;62.80;;;;;;5084185;28;43423;-70
2023/06/04 00:39:54;;;;;;;1.60;1.60;;;22.00;62.60;;;;;;5084712;28;45385;-70
2023/06/04 00:42:22;;;;;;;1.40;1.40;;;22.00;62.30;;;;;;5086942;28;43360;-70
2023/06/04 00:44:50;;;;;;;1.60;1.60;;;22.00;62.70;;;;;;5088450;27;44022;-71
2023/06/04 00:47:18;;;;;;;1.57;1.50;;;22.00;62.90;;;;;;5086989;27;44097;-70
2023/06/04 00:49:46;;;;;;;1.50;1.50;;;22.10;62.70;;;;;;5088052;27;43606;-70
2023/06/04 00:52:18;;;;;;;1.53;1.53;;;22.30;62.20;;;;;;5085312;28;45058;-71
2023/06/04 00:54:46;;;;;;;1.60;1.60;;;22.40;61.80;;;;;;5088367;27;43366;-70
2023/06/04 00:57:14;;;;;;;1.30;1.30;;;22.50;61.90;;;;;;5086925;28;43656;-70
2023/06/04 00:59:42;;;;;;;1.30;1.30;;;22.40;61.80;;;;;;5087441;27;43650;-70
2023/06/04 01:02:12;;;;;;;1.80;1.80;;;22.40;61.70;;;;;;5088548;27;44975;-71
2023/06/04 01:04:45;;;;;;;1.63;1.63;;;22.30;62.00;;;;;;5088369;27;43476;-70
2023/06/04 01:07:14;;;;;;;1.40;1.40;;;22.30;62.50;;;;;;5088924;27;43328;-70
2023/06/04 01:09:44;;;;;;;1.57;1.57;;;22.30;62.40;;;;;;5088367;27;43994;-70
2023/06/04 01:12:13;;;;;;;1.57;1.57;;;22.20;62.40;;;;;;5086564;28;44687;-70
2023/06/04 01:14:41;;;;;;;1.40;1.40;;;22.20;62.20;;;;;;5085131;28;44029;-70
2023/06/04 01:17:13;;;;;;;1.57;1.57;;;22.10;62.70;;;;;;5087234;28;43467;-70
2023/06/04 01:20:04;;;;;;;1.50;1.50;;;22.10;62.70;;;;;;5087985;28;43920;-70
2023/06/04 01:22:38;;;;;;;1.40;1.40;;;22.10;62.70;;;;;;5086340;27;43447;-70
2023/06/04 01:25:19;;;;;;;1.30;1.30;;;22.10;62.40;;;;;;5087028;27;43439;-70
2023/06/04 01:27:49;;;;;;;1.40;1.40;;;22.00;62.70;;;;;;5088059;27;43442;-70
2023/06/04 01:30:17;;;;;;;1.40;1.40;;;22.10;62.90;;;;;;5087790;28;43848;-70
2023/06/04 01:32:46;;;;;;;1.60;1.60;;;22.20;62.70;;;;;;5086439;28;44364;-70
2023/06/04 01:35:14;;;;;;;1.53;1.53;;;22.30;62.10;;;;;;5081362;28;43402;-70
2023/06/04 01:37:42;;;;;;;1.30;1.30;;;22.40;62.00;;;;;;5088501;27;43427;-70
2023/06/04 01:40:12;;;;;;;1.30;1.30;;;22.40;61.90;;;;;;5086386;28;45684;-70
2023/06/04 01:42:42;;;;;;;1.40;1.40;;;22.40;61.90;;;;;;5081057;28;43969;-72
2023/06/04 01:45:13;;;;;;;1.40;1.40;;;22.30;61.90;;;;;;5085944;28;43433;-70
2023/06/04 01:47:41;;;;;;;1.40;1.40;;;22.30;62.20;;;;;;5086474;28;43462;-70
2023/06/04 01:50:10;;;;;;;1.40;1.40;;;22.20;62.40;;;;;;5087904;27;44945;-69
2023/06/04 01:52:38;;;;;;;1.40;1.40;;;22.20;62.50;;;;;;5087611;28;43399;-69
2023/06/04 01:55:07;;;;;;;1.40;1.40;;;22.20;62.50;;;;;;5087580;27;43426;-69
2023/06/04 01:57:36;;;;;;;1.37;1.37;;;22.10;62.40;;;;;;5087808;27;43458;-70
2023/06/04 02:00:07;;;;;;;1.20;1.20;;;22.10;62.80;;;;;;5086006;28;45677;-69
2023/06/04 02:02:40;;;;;;;1.30;1.30;;;22.10;62.80;;;;;;5085621;28;43392;-70
2023/06/04 02:05:09;;;;;;;1.40;1.40;;;22.10;62.80;;;;;;5087375;27;43428;-70
2023/06/04 02:07:38;;;;;;;1.47;1.47;;;22.10;62.50;;;;;;5086895;27;43548;-70
2023/06/04 02:10:07;;;;;;;1.40;1.40;;;22.00;62.70;;;;;;5087267;27;44423;-69
2023/06/04 02:12:38;;;;;;;1.50;1.50;;;22.00;62.90;;;;;;5083060;28;44406;-69
2023/06/04 02:15:07;;;;;;;1.30;1.30;;;22.10;63.50;;;;;;5087239;28;43397;-69
2023/06/04 02:17:37;;;;;;;1.50;1.50;;;22.20;62.30;;;;;;5087861;27;43439;-69
2023/06/04 02:20:09;;;;;;;1.20;1.20;;;22.30;61.90;;;;;;5086943;27;43586;-70
2023/06/04 02:22:37;;;;;;;1.27;1.27;;;22.40;61.70;;;;;;5085565;27;43562;-69
2023/06/04 02:25:08;;;;;;;1.40;1.40;;;22.40;61.90;;;;;;5081301;28;44004;-70
2023/06/04 02:27:38;;;;;;;1.30;1.30;;;22.40;62.00;;;;;;5085821;28;43747;-69
2023/06/04 02:30:08;;;;;;;1.30;1.30;;;22.30;62.00;;;;;;5085653;28;45894;-70
2023/06/04 02:32:36;;;;;;;1.40;1.40;;;22.20;62.50;;;;;;5084865;28;43585;-69
2023/06/04 02:35:05;;;;;;;1.30;1.30;;;22.20;62.50;;;;;;5086331;27;43716;-70
2023/06/04 02:37:33;;;;;;;1.20;1.20;;;22.20;62.50;;;;;;5078583;28;43394;-69
2023/06/04 02:40:01;;;;;;;1.47;1.47;;;22.10;62.90;;;;;;5085574;28;43821;-70
2023/06/04 02:42:29;;;;;;;1.13;1.13;;;22.10;62.70;;;;;;5087205;27;43478;-70
2023/06/04 02:44:59;;;;;;;1.43;1.43;;;22.10;62.90;;;;;;5085693;28;43438;-70
2023/06/04 02:47:28;;;;;;;1.10;1.10;;;22.10;62.90;;;;;;5086024;28;43493;-70
2023/06/04 02:49:56;;;;;;;1.33;1.30;;;22.00;62.60;;;;;;5087052;27;44814;-70
2023/06/04 02:52:25;;;;;;;1.40;1.40;;;22.00;62.50;;;;;;5086597;27;43909;-70
2023/06/04 02:54:53;;;;;;;1.37;1.37;;;22.00;63.00;;;;;;5086749;27;43385;-70
2023/06/04 02:57:21;;;;;;;1.30;1.30;;;22.00;63.00;;;;;;5086914;27;44038;-70
2023/06/04 02:59:49;;;;;;;1.40;1.40;;;22.00;63.00;;;;;;5084582;28;45888;-69
2023/06/04 03:02:18;;;;;;;1.20;1.20;;;22.00;62.60;;;;;;5085587;27;45574;-69
2023/06/04 03:04:50;;;;;;;1.30;1.30;;;22.00;63.00;;;;;;5086418;27;43362;-69
2023/06/04 03:07:20;;;;;;;1.30;1.30;;;22.00;63.20;;;;;;5086576;28;43473;-69
2023/06/04 03:09:48;;;;;;;1.30;1.30;;;22.00;62.80;;;;;;5078616;28;45987;-70
2023/06/04 03:12:16;;;;;;;1.20;1.20;;;22.20;62.50;;;;;;5088831;27;43485;-69
2023/06/04 03:14:44;;;;;;;1.30;1.30;;;22.30;62.00;;;;;;5083582;28;43474;-69
2023/06/04 03:17:12;;;;;;;1.37;1.37;;;22.40;61.70;;;;;;5090781;27;43272;-70
2023/06/04 03:19:42;;;;;;;1.30;1.30;;;22.40;61.90;;;;;;5083977;28;43593;-70
2023/06/04 03:22:10;;;;;;;1.30;1.30;;;22.30;61.80;;;;;;5080573;28;44628;-70
2023/06/04 03:24:39;;;;;;;1.30;1.30;;;22.30;61.90;;;;;;5088309;28;43825;-69
2023/06/04 03:27:08;;;;;;;1.40;1.40;;;22.20;62.40;;;;;;5085475;27;43494;-70
2023/06/04 03:29:36;;;;;;;1.30;1.30;;;22.20;62.50;;;;;;5088677;27;43598;-69
2023/06/04 03:32:07;;;;;;;1.30;1.30;;;22.20;62.60;;;;;;5088258;28;45009;-69
2023/06/04 03:34:38;;;;;;;1.30;1.30;;;22.10;62.40;;;;;;5088270;28;43430;-69
2023/06/04 03:37:07;;;;;;;1.30;1.30;;;22.10;62.50;;;;;;5090283;28;43349;-72
2023/06/04 03:39:38;;;;;;;1.40;1.40;;;22.00;62.90;;;;;;5081400;28;44991;-70
2023/06/04 03:42:09;;;;;;;1.10;1.10;;;22.00;62.90;;;;;;5086891;28;44486;-69
2023/06/04 03:44:38;;;;;;;1.20;1.20;;;22.00;62.90;;;;;;5087685;27;43425;-70
2023/06/04 03:47:07;;;;;;;1.50;1.50;;;22.00;62.50;;;;;;5088566;28;43536;-69
2023/06/04 03:49:36;;;;;;;1.03;1.03;;;22.00;62.80;;;;;;5088253;27;45812;-69
2023/06/04 03:52:04;;;;;;;1.00;1.00;;;22.00;63.20;;;;;;5087946;28;44331;-70
2023/06/04 03:54:33;;;;;;;1.20;1.20;;;22.00;63.00;;;;;;5088423;28;43421;-70
2023/06/04 03:57:03;;;;;;;1.17;1.17;;;22.20;62.60;;;;;;5100218;27;43504;-69
2023/06/04 03:59:31;;;;;;;1.10;1.10;;;22.30;62.10;;;;;;5089580;27;43741;-70
2023/06/04 04:01:59;;;;;;;1.10;1.10;;;22.40;62.10;;;;;;5088137;28;43475;-69
2023/06/04 04:04:32;;;;;;;1.10;1.10;;;22.40;62.00;;;;;;5088276;28;43576;-69
2023/06/04 04:07:01;;;;;;;1.20;1.20;;;22.30;62.20;;;;;;5089729;27;43918;-72
2023/06/04 04:09:29;;;;;;;1.27;1.27;;;22.30;61.90;;;;;;5089373;27;43822;-71
2023/06/04 04:11:58;;;;;;;1.20;1.20;;;22.20;62.50;;;;;;5085241;27;44605;-69
2023/06/04 04:14:26;;;;;;;1.20;1.20;;;22.20;62.70;;;;;;5087689;28;43360;-69
2023/06/04 04:16:55;;;;;;;1.10;1.10;;;22.20;62.80;;;;;;5089222;28;43450;-68
2023/06/04 04:19:23;;;;;;;1.10;1.10;;;22.10;62.40;;;;;;5095758;27;44078;-69
2023/06/04 04:21:51;;;;;;;1.10;1.10;;;22.10;62.40;;;;;;5087143;28;43805;-69
2023/06/04 04:24:24;;;;;;;1.20;1.20;;;22.10;63.00;;;;;;5086300;28;43481;-70
2023/06/04 04:26:53;;;;;;;1.10;1.10;;;22.00;63.00;;;;;;5084603;28;43588;-72
2023/06/04 04:29:24;;;;;;;1.27;1.27;;;22.00;62.80;;;;;;5080502;28;43804;-70
2023/06/04 04:31:53;;;;;;;1.10;1.10;;;22.00;62.50;;;;;;5087277;28;44460;-70
2023/06/04 04:34:23;;;;;;;1.20;1.20;;;22.00;63.00;;;;;;5087297;28;43880;-69
2023/06/04 04:36:52;;;;;;;1.20;1.20;;;22.00;63.20;;;;;;5088000;28;43584;-69
2023/06/04 04:39:24;;;;;;;1.20;1.20;;;22.10;63.00;;;;;;5080539;28;46009;-69
2023/06/04 04:41:55;;;;;;;1.10;1.10;;;22.20;62.70;;;;;;5081280;28;43351;-70
2023/06/04 04:44:24;;;;;;;1.00;1.00;;;22.20;62.50;;;;;;5087346;28;43445;-69
2023/06/04 04:46:53;;;;;;;1.10;1.10;;;22.20;62.60;;;;;;5086950;28;43990;-69
2023/06/04 04:49:21;;;;;;;1.10;1.10;;;22.20;62.80;;;;;;5088423;27;44057;-69
2023/06/04 04:51:49;;;;;;;1.00;1.00;;;22.20;62.80;;;;;;5088216;27;43473;-70
2023/06/04 04:54:18;;;;;;;1.10;1.10;;;22.20;62.90;;;;;;5086445;27;43514;-70
2023/06/04 04:56:46;;;;;;;1.10;1.10;;;22.10;62.50;;;;;;5089208;27;43438;-69
2023/06/04 04:59:18;;;;;;;1.00;1.00;;;22.10;62.40;;;;;;5088591;27;43912;-69
2023/06/04 05:01:47;;;;;;;1.03;1.03;;;22.10;63.10;;;;;;5080213;28;44840;-70
2023/06/04 05:04:15;;;;;;;1.00;1.00;;;22.10;63.10;;;;;;5088290;27;43408;-70
2023/06/04 05:06:43;;;;;;;1.00;1.00;;;22.10;63.00;;;;;;5089013;27;43313;-69
2023/06/04 05:09:11;;;;;;;1.10;1.10;;;22.00;62.50;;;;;;5086594;28;45950;-69
2023/06/04 05:11:39;;;;;;;1.10;1.10;;;22.00;62.60;;;;;;5088202;27;43489;-69
2023/06/04 05:14:08;;;;;;;1.10;1.10;;;22.00;63.20;;;;;;5086979;28;43483;-69
2023/06/04 05:16:37;;;;;;;0.90;0.90;;;22.00;63.20;;;;;;5087256;27;43393;-71
2023/06/04 05:19:12;;;;;;;1.20;1.20;;;22.00;63.20;;;;;;5082099;28;45610;-70
2023/06/04 05:21:41;;;;;;;1.00;1.00;;;22.00;62.70;;;;;;5087601;27;43449;-69
2023/06/04 05:24:09;;;;;;;1.00;1.00;;;22.00;62.90;;;;;;5080768;28;43984;-71
2023/06/04 05:26:40;;;;;;;0.97;0.97;;;22.00;63.30;;;;;;5085167;28;43574;-70
2023/06/04 05:29:15;;;;;;;1.10;1.10;;;22.00;63.30;;;;;;5085822;28;45434;-69
2023/06/04 05:31:44;;;;;;;1.10;1.10;;;22.10;62.80;;;;;;5087148;27;43395;-70
2023/06/04 05:34:18;;;;;;;1.20;1.20;;;22.30;62.20;;;;;;5086037;27;43698;-71
2023/06/04 05:36:47;;;;;;;1.10;1.10;;;22.40;62.10;;;;;;5087622;28;43465;-69
2023/06/04 05:39:18;;;;;;;1.10;1.10;;;22.40;62.10;;;;;;5086418;28;43911;-69
2023/06/04 05:41:58;;;;;;;1.00;1.00;;;22.30;62.20;;;;;;5082351;27;43877;-69
2023/06/04 05:44:26;;;;;;;1.07;1.07;;;22.30;62.10;;;;;;5081843;27;43431;-70
2023/06/04 05:46:54;;;;;;;1.00;1.00;;;22.20;62.50;;;;;;5088343;27;43767;-69
2023/06/04 05:49:24;;;;;;;0.90;0.90;;;22.10;62.80;;;;;;5085857;27;45454;-70
2023/06/04 05:51:54;;;;;;;1.00;1.00;;;22.10;62.90;;;;;;5086388;28;44850;-70
2023/06/04 05:54:22;;;;;;;1.10;1.10;;;22.10;62.50;;;;;;5088449;27;44188;-70
2023/06/04 05:56:51;;;;;;;1.13;1.13;;;22.00;62.30;;;;;;5083095;28;44040;-70
2023/06/04 05:59:20;;;;;;;1.03;1.03;;;22.00;63.00;;;;;;5085782;28;45611;-70
2023/06/04 06:01:48;;;;;;;1.00;1.00;;;22.00;63.20;;;;;;5085888;28;44044;-70
2023/06/04 06:04:16;;;;;;;1.00;1.00;;;22.00;63.20;;;;;;5081392;28;43510;-70
2023/06/04 06:06:48;;;;;;;0.97;0.97;;;22.00;62.80;;;;;;5086347;28;43518;-70
2023/06/04 06:09:16;;;;;;;1.03;1.03;;;21.90;62.80;;;;;;5085804;28;45976;-70
2023/06/04 06:11:44;;;;;;;1.10;1.10;;;21.90;63.20;;;;;;5086126;27;43414;-70
2023/06/04 06:14:15;;;;;;;1.00;1.00;;;21.90;63.20;;;;;;5083639;28;43489;-69
2023/06/04 06:16:43;;;;;;;0.80;0.80;;;21.90;63.10;;;;;;5086940;27;43457;-69
2023/06/04 06:19:12;;;;;;;0.90;0.90;;;21.90;62.90;;;;;;5085647;28;45413;-70
2023/06/04 06:21:40;;;;;;;1.10;1.10;;;21.90;63.20;;;;;;5085943;28;44716;-69
2023/06/04 06:24:09;;;;;;;0.90;0.90;;;21.90;63.50;;;;;;5085902;27;43301;-70
2023/06/04 06:26:38;;;;;;;0.97;0.97;;;22.00;63.30;;;;;;5086430;28;43744;-69
2023/06/04 06:29:07;;;;;;;0.90;0.80;;;22.10;62.70;;;;;;5085766;28;45862;-69
2023/06/04 06:31:35;;;;;;;1.00;1.00;;;22.20;62.20;;;;;;5085741;28;44702;-69
2023/06/04 06:34:04;;;;;;;1.00;1.00;;;22.30;62.30;;;;;;5087357;27;43530;-70
2023/06/04 06:36:32;;;;;;;1.03;1.03;;;22.30;62.30;;;;;;5087673;27;43483;-70
2023/06/04 06:39:01;;;;;;;1.10;1.10;;;22.30;62.30;;;;;;5081606;27;45405;-69
2023/06/04 06:41:30;;;;;;;0.80;0.80;;;22.20;62.30;;;;;;5084691;28;44026;-70
2023/06/04 06:43:58;;;;;;;0.90;0.90;;;22.10;62.70;;;;;;5086202;28;43388;-70
2023/06/04 06:46:27;;;;;;;0.93;0.93;;;22.10;62.80;;;;;;5087805;27;44257;-70
2023/06/04 06:48:55;;;;;;;1.00;1.00;;;22.10;62.80;;;;;;5090469;27;43824;-69
2023/06/04 06:51:23;;;;;;;0.97;0.97;;;22.00;62.50;;;;;;5088950;28;44754;-71
2023/06/04 06:53:51;;;;;;;0.90;0.90;;;22.00;62.80;;;;;;5087054;28;43485;-70
2023/06/04 06:56:19;;;;;;;0.70;0.70;;;22.00;63.20;;;;;;5091026;27;44006;-70
2023/06/04 06:58:51;;;;;;;1.00;1.00;;;22.00;63.10;;;;;;5090155;27;43623;-70
2023/06/04 07:01:21;;;;;;;0.90;0.90;;;22.10;62.90;;;;;;5093134;27;43523;-70
2023/06/04 07:03:49;;;;;;;0.87;0.87;;;22.10;62.80;;;;;;5088643;28;43386;-70
2023/06/04 07:06:17;;;;;;;0.90;0.90;;;22.10;62.70;;;;;;5089538;28;43807;-71
2023/06/04 07:08:49;;;;;;;0.80;0.80;;;22.10;62.90;;;;;;5082752;28;43647;-70
2023/06/04 07:11:17;;;;;;;1.10;1.10;;;22.10;63.00;;;;;;5089991;28;43376;-70
2023/06/04 07:13:45;;;;;;;0.90;0.90;;;22.10;63.00;;;;;;5089202;27;44044;-70
2023/06/04 07:16:14;;;;;;;0.93;0.93;;;22.00;62.70;;;;;;5088234;27;44019;-70
2023/06/04 07:18:42;;;;;;;0.90;0.90;;;22.00;62.60;;;;;;5090085;27;43606;-71
2023/06/04 07:21:10;;;;;;;0.90;0.90;;;22.00;63.20;;;;;;5089554;27;43343;-70
2023/06/04 07:23:38;;;;;;;0.80;0.80;;;22.00;63.50;;;;;;5089993;27;43387;-70
2023/06/04 07:26:07;;;;;;;0.83;0.83;;;22.00;63.00;;;;;;5090009;27;43608;-70
2023/06/04 07:28:37;;;;;;;0.90;0.90;;;21.90;62.40;;;;;;5089983;27;43836;-70
2023/06/04 07:31:05;;;;;;;1.10;1.10;;;21.90;62.50;;;;;;5090065;28;43890;-70
2023/06/04 07:33:42;;;;;;;0.90;0.90;;;21.90;63.20;;;;;;5084832;27;43505;-70
2023/06/04 07:36:11;;;;;;;1.00;1.00;;;21.90;62.90;;;;;;5083440;27;43556;-70
2023/06/04 07:38:39;;;;;;;0.90;0.90;;;22.00;62.40;;;;;;5089972;27;43840;-69
2023/06/04 07:41:07;;;;;;;0.90;0.90;;;22.10;61.80;;;;;;5089595;27;43406;-69
2023/06/04 07:43:35;;;;;;;1.20;0.80;;;22.20;61.70;;;;;;5090141;27;43788;-69
2023/06/04 07:46:03;;;;;;;0.90;0.90;;;22.20;61.70;;;;;;5088732;28;43784;-69
2023/06/04 07:48:31;;;;;;;1.00;1.00;;;22.20;60.60;;;;;;5088394;28;45861;-70
2023/06/04 07:51:01;;;;;;;1.00;1.00;;;22.10;61.40;;;;;;5089884;27;43408;-69
2023/06/04 07:53:29;;;;;;;0.90;0.90;;;22.00;62.20;;;;;;5083159;27;43371;-73
2023/06/04 07:55:57;;;;;;;0.90;0.90;;;22.00;62.20;;;;;;5088505;27;43395;-71
2023/06/04 07:58:26;;;;;;;1.00;1.00;;;22.00;61.90;;;;;;5087891;27;43844;-69
2023/06/04 08:00:54;;;;;;;0.93;0.93;;;22.00;61.80;;;;;;5089315;27;43438;-69
2023/06/04 08:03:22;;;;;;;1.00;1.00;;;21.90;61.70;;;;;;5084328;27;43546;-69
2023/06/04 08:05:51;;;;;;;1.30;1.20;;;21.90;62.30;;;;;;5089775;27;43382;-70
2023/06/04 08:08:20;;;;;;;0.80;0.80;;;21.90;62.40;;;;;;5087884;28;45719;-69
2023/06/04 08:10:54;;;;;;;1.17;1.13;;;21.90;62.30;;;;;;5085739;28;43502;-70
2023/06/04 08:13:22;;;;;;;1.00;1.00;;;21.90;61.90;;;;;;5089286;27;43430;-69
2023/06/04 08:15:50;;;;;;;1.00;1.00;;;21.80;62.20;;;;;;5090003;27;43406;-69
2023/06/04 08:18:18;;;;;;;1.20;1.20;;;21.80;62.40;;;;;;5087433;28;45472;-70
2023/06/04 08:20:46;;;;;;;0.90;0.90;;;21.90;62.20;;;;;;5082163;27;43353;-69
2023/06/04 08:23:14;;;;;;;0.90;0.90;;;22.00;61.60;;;;;;5088227;27;43437;-70
2023/06/04 08:25:43;;;;;;;1.43;1.00;;;22.10;61.40;;;;;;5085166;28;43442;-71
2023/06/04 08:28:11;;;;;;;1.10;1.10;;;22.20;61.60;;;;;;5088032;27;43988;-70
2023/06/04 08:30:39;;;;;;;1.27;1.27;;;22.10;60.70;;;;;;5088850;27;43653;-69
2023/06/04 08:33:07;;;;;;;1.00;1.00;;;22.10;61.30;;;;;;5088977;28;43417;-70
2023/06/04 08:35:38;;;;;;;0.90;0.90;;;22.10;61.50;;;;;;5088083;27;43424;-69
2023/06/04 08:38:07;;;;;;;1.37;0.90;;;22.00;62.10;;;;;;5088700;28;43777;-70
2023/06/04 08:40:35;;;;;;;1.10;1.10;;;22.00;62.20;;;;;;5088592;27;43478;-69
2023/06/04 08:43:05;;;;;;;1.10;1.10;;;21.90;61.80;;;;;;5083811;28;43393;-70
2023/06/04 08:45:34;;;;;;;1.10;1.10;;;21.90;61.60;;;;;;5089082;27;43849;-70
2023/06/04 08:48:02;;;;;;;1.00;1.00;;;21.90;62.00;;;;;;5088526;27;43960;-69
2023/06/04 08:50:31;;;;;;;1.00;1.00;;;21.80;62.40;;;;;;5088871;27;43382;-69
2023/06/04 08:52:59;;;;;;;1.20;1.20;;;21.80;62.20;;;;;;5084931;27;43417;-70
2023/06/04 08:55:27;;;;;;;1.00;1.00;;;21.80;61.70;;;;;;5087277;27;43394;-70
2023/06/04 08:57:58;;;;;;;1.10;1.10;;;21.80;61.60;;;;;;5084465;28;43906;-69
2023/06/04 09:00:28;;;;;;;1.10;1.10;;;21.80;62.30;;;;;;5086653;28;43275;-70
2023/06/04 09:02:56;;;;;;;1.00;1.00;;;21.80;62.50;;;;;;5081244;28;43553;-69
2023/06/04 09:05:24;;;;;;;1.30;1.30;;;21.90;62.20;;;;;;5088348;27;43429;-69
2023/06/04 09:07:53;;;;;;;1.00;1.00;;;22.10;62.00;;;;;;5090933;27;43608;-69
2023/06/04 09:10:22;;;;;;;1.00;1.00;;;22.10;61.70;;;;;;5082420;27;43967;-70
2023/06/04 09:12:50;;;;;;;0.90;0.90;;;22.10;61.80;;;;;;5087031;27;43395;-70
2023/06/04 09:15:19;;;;;;;1.00;1.00;;;22.10;61.60;;;;;;5088379;27;43481;-70
2023/06/04 09:17:48;;;;;;;1.10;1.10;;;22.00;61.20;;;;;;5080718;28;45611;-69
2023/06/04 09:20:20;;;;;;;1.10;1.10;;;22.00;61.90;;;;;;5077359;28;44423;-70
2023/06/04 09:22:48;;;;;;;1.00;1.00;;;22.00;62.40;;;;;;5079214;27;43483;-70
2023/06/04 09:25:22;;;;;;;0.77;0.77;;;21.90;62.30;;;;;;5083439;28;43408;-70
2023/06/04 09:27:50;;;;;;;1.03;1.03;;;21.90;61.90;;;;;;5094571;27;45833;-69
2023/06/04 09:30:18;;;;;;;0.90;0.90;;;21.90;61.80;;;;;;5078223;28;45883;-70
2023/06/04 09:32:47;;;;;;;1.10;1.10;;;21.90;62.80;;;;;;5081717;28;43494;-70
2023/06/04 09:35:17;;;;;;;1.20;1.10;;;21.90;62.80;;;;;;5081473;28;44278;-70
2023/06/04 09:37:53;;;;;;;4.30;1.13;;;21.90;62.50;;;;;;5083796;28;43602;-69
2023/06/04 09:40:22;;;;;;;0.90;0.90;;;22.00;62.50;;;;;;5082357;28;44242;-69
2023/06/04 09:42:54;;;;;;;0.90;0.90;;;22.00;62.20;;;;;;5080711;28;43504;-69
2023/06/04 09:45:29;;;;;;;0.90;0.90;;;22.00;62.40;;;;;;5092048;27;43453;-70
2023/06/04 09:47:59;;;;;;;1.00;1.00;;;22.00;62.70;;;;;;5080508;28;43749;-69
2023/06/04 09:50:27;;;;;;;0.90;0.90;;;22.00;62.70;;;;;;5077368;28;43537;-69
2023/06/04 09:52:55;;;;;;;1.00;1.00;;;21.90;62.20;;;;;;5083900;28;43840;-70
2023/06/04 09:55:23;;;;;;;1.03;1.03;;;21.90;62.00;;;;;;5078622;28;43482;-70
2023/06/04 09:57:54;;;;;;;1.00;1.00;;;21.90;62.80;;;;;;5075495;27;43740;-70
2023/06/04 10:00:23;;;;;;;1.10;1.10;;;21.80;62.80;;;;;;5078240;27;44476;-70
2023/06/04 10:02:54;;;;;;;1.00;1.00;;;21.90;62.70;;;;;;5078361;28;43467;-69
2023/06/04 10:05:24;;;;;;;1.10;1.10;;;21.80;62.30;;;;;;5079140;28;43850;-69
2023/06/04 10:07:52;;;;;;;0.87;0.87;;;21.80;62.40;;;;;;5077353;27;43634;-70
2023/06/04 10:10:22;;;;;;;0.90;0.90;;;21.80;63.00;;;;;;5075471;28;43946;-70
2023/06/04 10:12:52;;;;;;;0.90;0.90;;;21.80;63.00;;;;;;5079350;27;43466;-70
2023/06/04 10:15:20;;;;;;;1.10;1.10;;;21.80;62.60;;;;;;5078787;28;43387;-70
2023/06/04 10:17:48;;;;;;;0.90;0.90;;;21.80;62.40;;;;;;5079090;28;45679;-70
2023/06/04 10:20:16;;;;;;;1.20;1.10;;;21.80;62.80;;;;;;5078611;27;43925;-70
2023/06/04 10:22:45;;;;;;;0.90;0.90;;;21.80;63.30;;;;;;5082950;27;43434;-70
2023/06/04 10:25:13;;;;;;;1.17;1.17;;;21.90;63.10;;;;;;5086321;27;43445;-70
2023/06/04 10:27:41;;;;;;;0.93;0.93;;;22.00;62.70;;;;;;5082716;28;43694;-70
2023/06/04 10:30:10;;;;;;;0.90;0.90;;;22.10;62.50;;;;;;5082659;28;44724;-70
2023/06/04 10:32:38;;;;;;;1.00;1.00;;;22.10;62.30;;;;;;5083204;28;43398;-70
2023/06/04 10:35:07;;;;;;;1.03;1.03;;;22.10;62.20;;;;;;5082142;27;44014;-69
2023/06/04 10:37:37;;;;;;;0.90;0.90;;;22.10;61.80;;;;;;5080420;28;45729;-69
2023/06/04 10:40:08;;;;;;;0.80;0.80;;;22.00;61.70;;;;;;5080855;28;45368;-69
2023/06/04 10:42:40;;;;;;;0.90;0.90;;;22.00;62.70;;;;;;5085676;27;43348;-70
2023/06/04 10:45:09;;;;;;;1.10;1.10;;;22.00;62.80;;;;;;5085611;28;43479;-70
2023/06/04 10:47:40;;;;;;;1.10;1.10;;;21.90;62.20;;;;;;5080230;27;45676;-71
2023/06/04 10:50:10;;;;;;;1.43;1.00;;;21.90;62.10;;;;;;5086122;28;44447;-70
2023/06/04 10:52:38;;;;;;;1.03;1.03;;;21.90;62.70;;;;;;5084116;27;43449;-70
2023/06/04 10:55:09;;;;;;;0.90;0.90;;;21.90;63.20;;;;;;5081511;28;43836;-69
2023/06/04 10:57:37;;;;;;;1.23;1.10;;;21.80;62.80;;;;;;5081437;28;43795;-69
2023/06/04 11:00:10;;;;;;;0.90;0.90;;;21.80;62.50;;;;;;5084251;27;44065;-69
2023/06/04 11:02:38;;;;;;;1.00;1.00;;;21.80;62.40;;;;;;5083836;28;43468;-70
2023/06/04 11:05:09;;;;;;;0.90;0.90;;;21.80;63.00;;;;;;5081818;28;43620;-70
2023/06/04 11:07:44;;;;;;;0.80;0.80;;;21.80;63.30;;;;;;5082982;28;44053;-70
2023/06/04 11:10:15;;;;;;;1.00;1.00;;;21.80;62.80;;;;;;5081817;27;43529;-69
2023/06/04 11:12:44;;;;;;;1.20;1.20;;;21.80;62.70;;;;;;5081500;28;43410;-70
2023/06/04 11:15:12;;;;;;;1.10;1.10;;;21.80;62.70;;;;;;5085055;28;43964;-70
2023/06/04 11:17:50;;;;;;;1.03;1.03;;;21.80;63.50;;;;;;5090059;27;43856;-70
2023/06/04 11:20:19;;;;;;;2.37;1.10;;;21.80;62.70;;;;;;5085904;27;43327;-70
2023/06/04 11:22:54;;;;;;;1.27;1.20;;;21.90;62.40;;;;;;5086957;28;43494;-70
2023/06/04 11:25:24;;;;;;;1.03;1.03;;;22.00;62.40;;;;;;5089139;28;43569;-70
2023/06/04 11:27:53;;;;;;;1.30;1.20;;;22.10;62.00;;;;;;5081973;28;45614;-70
2023/06/04 11:30:21;;;;;;;1.70;1.30;;;22.20;62.10;;;;;;5081097;28;44750;-70
2023/06/04 11:32:49;;;;;;;1.80;1.20;;;22.20;62.10;;;;;;5083472;27;43394;-70
2023/06/04 11:35:17;;;;;;;1.33;1.33;;;22.10;61.70;;;;;;5083416;28;44119;-70
2023/06/04 11:37:54;;;;;;;1.10;1.10;;;22.10;62.50;;;;;;5078689;28;43615;-70
2023/06/04 11:40:23;;;;;;;1.00;1.00;;;22.00;62.80;;;;;;5084945;28;43520;-70
2023/06/04 11:42:51;;;;;;;1.13;1.13;;;22.00;62.50;;;;;;5083932;28;43450;-70
2023/06/04 11:45:20;;;;;;;1.60;1.10;;;22.00;62.30;;;;;;5084523;28;43546;-71
2023/06/04 11:47:48;;;;;;;1.23;1.00;;;21.90;62.20;;;;;;5082125;27;43944;-71
2023/06/04 11:50:17;;;;;;;2.77;1.40;;;21.90;63.10;;;;;;5081190;27;43496;-70
2023/06/04 11:52:45;;;;;;;1.30;1.30;;;21.90;63.20;;;;;;5081131;27;44979;-70
2023/06/04 11:55:13;;;;;;;1.20;1.20;;;21.90;62.90;;;;;;5082757;27;43530;-70
2023/06/04 11:57:42;;;;;;;1.53;1.33;;;21.90;62.70;;;;;;5080742;28;44023;-70
2023/06/04 12:00:11;;;;;;;1.53;1.40;;;21.80;62.70;;;;;;5084229;28;43371;-70
2023/06/04 12:02:48;;;;;;;1.20;1.20;;;21.80;63.30;;;;;;5080437;28;43595;-70
2023/06/04 12:05:18;;;;;;;2.10;1.57;;;21.90;63.50;;;;;;5101107;27;43595;-70
2023/06/04 12:07:47;;;;;;;1.20;1.20;;;22.00;63.30;;;;;;5079805;28;45992;-70
2023/06/04 12:10:15;;;;;;;1.30;1.30;;;22.10;63.10;;;;;;5080037;28;43555;-70
2023/06/04 12:12:44;;;;;;;1.50;1.40;;;22.10;62.80;;;;;;5084152;28;43383;-70
2023/06/04 12:15:13;;;;;;;1.20;1.20;;;22.10;62.60;;;;;;5080111;27;43585;-70
2023/06/04 12:17:50;;;;;;;1.30;1.27;;;22.00;62.20;;;;;;5081985;27;43864;-70
2023/06/04 12:20:19;;;;;;;1.20;1.20;;;22.00;62.40;;;;;;5083089;28;44000;-70
2023/06/04 12:22:47;;;;;;;1.10;1.10;;;22.00;63.20;;;;;;5079664;28;43352;-70
2023/06/04 12:25:25;;;;;;;1.00;1.00;;;21.90;63.10;;;;;;5080054;28;43694;-70
2023/06/04 12:27:54;;;;;;;1.10;1.10;;;21.90;62.80;;;;;;5078337;28;44977;-70
2023/06/04 12:30:22;;;;;;;1.00;1.00;;;21.90;62.70;;;;;;5079345;27;43618;-71
2023/06/04 12:32:50;;;;;;;1.27;1.27;;;21.90;63.40;;;;;;5080629;27;44015;-70
2023/06/04 12:35:18;;;;;;;1.20;1.20;;;21.90;63.50;;;;;;5080012;28;43513;-70
2023/06/04 12:37:46;;;;;;;1.10;1.10;;;21.80;63.00;;;;;;5085115;27;46825;-70
2023/06/04 12:40:14;;;;;;;1.30;1.30;;;21.80;62.80;;;;;;5081020;28;44726;-70
2023/06/04 12:42:43;;;;;;;1.90;1.20;;;21.80;63.10;;;;;;5079900;28;43992;-71
2023/06/04 12:45:14;;;;;;;1.30;1.30;;;21.80;63.60;;;;;;5079357;28;43439;-70
2023/06/04 12:47:43;;;;;;;1.40;1.40;;;21.90;63.50;;;;;;5082367;28;43630;-70
2023/06/04 12:50:11;;;;;;;1.20;1.20;;;22.00;63.40;;;;;;5081143;27;43487;-70
2023/06/04 12:52:39;;;;;;;1.23;1.23;;;22.10;63.00;;;;;;5085133;28;43951;-70
2023/06/04 12:55:08;;;;;;;1.30;1.30;;;22.10;62.30;;;;;;5089170;27;43453;-70
2023/06/04 12:57:38;;;;;;;1.10;1.10;;;22.10;62.40;;;;;;5088234;27;43823;-70